Time;durP1;ratioP1;P1;durP2;ratioP2;P2;SDS_P1;SDS_P2;PMS_P1;PMS_P2;Temp;Humidity;BMP_temperature;BMP_pressure;BME280_temperature;BME280_humidity;BME280_pressure;Samples;Min_cycle;Max_cycle;Signal;HPM_P1;HPM_P2
2024/02/16 00:01:00;;;;;;;6.20;4.13;;;;;;;11.19;41.11;99277.56;5034514;28;20028;-73
2024/02/16 00:03:26;;;;;;;6.72;3.00;;;;;;;11.20;41.17;99283.66;5034971;28;20029;-73
2024/02/16 00:05:53;;;;;;;5.25;2.92;;;;;;;11.17;40.99;99270.78;5018285;28;20037;-72
2024/02/16 00:08:18;;;;;;;5.95;3.40;;;;;;;11.21;40.87;99282.69;5017978;28;20036;-73
2024/02/16 00:10:44;;;;;;;4.20;3.03;;;;;;;11.18;41.07;99272.44;5034756;28;20041;-74
2024/02/16 00:13:10;;;;;;;5.25;2.97;;;;;;;11.16;41.17;99271.72;5034450;28;20507;-74
2024/02/16 00:15:35;;;;;;;4.93;3.28;;;;;;;11.16;41.07;99280.38;5017979;28;20465;-73
2024/02/16 00:18:02;;;;;;;6.80;3.25;;;;;;;11.22;40.85;99282.56;5017847;28;20460;-73
2024/02/16 00:20:28;;;;;;;3.90;2.75;;;;;;;11.22;41.15;99272.13;5018777;28;20025;-73
2024/02/16 00:22:54;;;;;;;4.72;3.22;;;;;;;11.18;41.21;99290.75;5051364;28;20039;-73
2024/02/16 00:25:20;;;;;;;5.07;2.97;;;;;;;11.13;41.34;99270.19;5033916;28;20124;-73
2024/02/16 00:27:45;;;;;;;4.72;3.13;;;;;;;11.18;41.25;99286.38;5034276;28;20037;-73
2024/02/16 00:30:11;;;;;;;4.47;3.15;;;;;;;11.21;41.42;99273.09;5050429;28;20095;-72
2024/02/16 00:32:36;;;;;;;6.60;3.60;;;;;;;11.19;41.46;99279.34;5050937;28;20427;-71
2024/02/16 00:35:03;;;;;;;5.50;3.42;;;;;;;11.16;41.49;99279.56;5050799;28;20029;-71
2024/02/16 00:37:28;;;;;;;5.85;3.25;;;;;;;11.10;41.69;99266.94;5033688;28;20044;-72
2024/02/16 00:39:55;;;;;;;5.18;3.38;;;;;;;11.12;42.13;99276.34;5034443;28;20036;-73
2024/02/16 00:42:22;;;;;;;5.80;3.58;;;;;;;11.10;42.15;99267.78;5034490;28;20029;-72
2024/02/16 00:44:48;;;;;;;5.03;3.45;;;;;;;11.12;42.16;99275.50;5014651;28;20042;-74
2024/02/16 00:47:16;;;;;;;6.75;3.50;;;;;;;11.08;42.32;99266.22;5022781;28;20029;-74
2024/02/16 00:49:43;;;;;;;6.85;3.60;;;;;;;11.09;42.21;99260.06;5000914;28;20091;-73
2024/02/16 00:52:10;;;;;;;6.13;3.30;;;;;;;11.04;42.34;99271.66;5015194;28;20083;-73
2024/02/16 00:54:36;;;;;;;4.85;3.60;;;;;;;11.08;42.45;99269.66;5015082;28;20130;-72
2024/02/16 00:57:02;;;;;;;5.68;3.33;;;;;;;11.08;42.49;99259.19;4998446;28;20067;-73
2024/02/16 00:59:28;;;;;;;7.55;3.72;;;;;;;11.07;42.71;99274.97;4998421;28;20400;-73
2024/02/16 01:01:53;;;;;;;5.88;3.65;;;;;;;11.10;42.88;99266.94;5014437;28;20025;-74
2024/02/16 01:04:19;;;;;;;4.55;3.35;;;;;;;11.08;43.04;99263.59;5014360;28;20025;-72
2024/02/16 01:06:44;;;;;;;7.05;3.97;;;;;;;11.11;43.21;99276.44;5014732;28;20489;-74
2024/02/16 01:09:12;;;;;;;7.55;3.60;;;;;;;11.11;43.28;99272.03;5014520;28;20073;-73
2024/02/16 01:11:41;;;;;;;5.95;3.92;;;;;;;11.08;43.16;99268.81;5030819;28;20370;-73
2024/02/16 01:14:07;;;;;;;;;;;;;;;11.11;43.08;99258.97;5014721;28;20045;-72
2024/02/16 01:16:32;;;;;;;8.77;4.53;;;;;;;11.02;43.39;99251.78;5031152;28;19935;-73
2024/02/16 01:18:58;;;;;;;8.35;4.88;;;;;;;11.02;43.61;99254.41;5014200;28;20112;-72
2024/02/16 01:21:24;;;;;;;6.35;4.50;;;;;;;11.08;43.63;99263.59;5014313;28;20049;-72
2024/02/16 01:23:49;;;;;;;5.35;4.07;;;;;;;11.11;43.72;99260.78;5014280;28;20037;-74
2024/02/16 01:26:15;;;;;;;6.45;4.22;;;;;;;11.13;43.63;99258.88;5014594;28;20099;-73
2024/02/16 01:28:40;;;;;;;6.95;4.28;;;;;;;11.13;43.45;99258.88;5030480;28;20103;-73
2024/02/16 01:31:06;;;;;;;8.30;3.90;;;;;;;11.04;43.36;99248.13;4997577;28;20394;-74
2024/02/16 01:33:34;;;;;;;6.22;4.03;;;;;;;11.12;43.48;99247.59;5032409;28;20040;-73
2024/02/16 01:36:00;;;;;;;5.70;3.80;;;;;;;11.13;43.14;99253.66;5051861;28;20068;-74
2024/02/16 01:38:25;;;;;;;5.22;3.60;;;;;;;11.15;43.21;99257.84;5033776;28;20037;-73
2024/02/16 01:40:51;;;;;;;7.05;3.50;;;;;;;11.16;43.12;99258.66;5050153;28;20037;-73
2024/02/16 01:43:20;;;;;;;5.20;3.50;;;;;;;11.19;43.04;99246.22;5017107;28;20041;-72
2024/02/16 01:45:48;;;;;;;5.80;3.75;;;;;;;11.19;43.14;99242.78;5017015;28;20084;-73
2024/02/16 01:48:16;;;;;;;6.20;3.95;;;;;;;11.20;42.75;99240.06;5050775;28;20136;-73
2024/02/16 01:50:46;;;;;;;7.35;3.60;;;;;;;11.20;42.74;99239.22;5034993;28;20408;-72
2024/02/16 01:53:15;;;;;;;7.22;4.10;;;;;;;11.19;42.60;99232.31;5037304;28;20507;-73
2024/02/16 01:55:41;;;;;;;5.88;3.53;;;;;;;11.25;42.53;99239.72;5021183;28;20448;-72
2024/02/16 01:58:07;;;;;;;5.00;3.67;;;;;;;11.24;42.81;99230.19;5037861;28;20068;-74
2024/02/16 02:00:32;;;;;;;5.78;3.78;;;;;;;11.22;42.73;99226.88;5053928;28;20021;-72
2024/02/16 02:02:58;;;;;;;4.82;3.28;;;;;;;11.22;42.83;99227.69;5053649;28;20035;-72
2024/02/16 02:05:23;;;;;;;4.93;3.42;;;;;;;11.22;42.62;99238.16;5053704;28;20029;-74
2024/02/16 02:07:49;;;;;;;5.13;3.40;;;;;;;11.17;42.82;99229.00;5037162;28;20044;-73
2024/02/16 02:10:14;;;;;;;5.35;3.67;;;;;;;11.21;42.71;99230.41;5036988;28;20091;-72
2024/02/16 02:12:42;;;;;;;5.78;3.33;;;;;;;11.20;42.61;99228.78;5020461;28;20498;-73
2024/02/16 02:15:08;;;;;;;5.63;3.47;;;;;;;11.19;42.71;99221.88;5037521;28;20033;-72
2024/02/16 02:17:34;;;;;;;5.95;3.70;;;;;;;11.17;42.85;99227.19;5020886;28;20124;-72
2024/02/16 02:19:59;;;;;;;5.05;3.60;;;;;;;11.22;42.93;99222.47;5036677;28;20475;-72
2024/02/16 02:22:26;;;;;;;6.38;4.03;;;;;;;11.18;42.73;99226.25;5053454;28;20036;-72
2024/02/16 02:24:55;;;;;;;6.47;3.88;;;;;;;11.16;42.77;99233.34;5020720;28;20566;-72
2024/02/16 02:27:21;;;;;;;5.68;3.70;;;;;;;11.20;42.88;99234.00;5053527;28;20044;-73
2024/02/16 02:29:49;;;;;;;5.18;3.65;;;;;;;11.16;43.24;99229.91;5053492;28;20041;-72
2024/02/16 02:32:15;;;;;;;9.15;4.10;;;;;;;11.20;43.08;99231.38;5053627;28;20033;-72
2024/02/16 02:34:40;;;;;;;6.53;3.75;;;;;;;11.22;42.96;99227.69;5052443;28;20032;-73
2024/02/16 02:37:06;;;;;;;7.13;4.47;;;;;;;11.14;43.42;99227.41;5054280;28;20036;-72
2024/02/16 02:39:32;;;;;;;6.43;4.13;;;;;;;11.12;43.42;99225.88;5036503;28;20032;-74
2024/02/16 02:41:57;;;;;;;5.38;3.92;;;;;;;11.17;43.10;99231.59;5019870;28;20052;-72
2024/02/16 02:44:24;;;;;;;6.07;4.07;;;;;;;11.15;43.20;99233.50;5052512;28;20041;-73
2024/02/16 02:46:49;;;;;;;7.68;4.35;;;;;;;11.18;43.02;99231.50;5051934;28;20029;-74
2024/02/16 02:49:15;;;;;;;6.40;3.50;;;;;;;11.16;43.12;99235.16;5035609;28;20135;-73
2024/02/16 02:51:40;;;;;;;7.55;4.28;;;;;;;11.20;43.01;99231.38;5018275;28;20037;-73
2024/02/16 02:54:06;;;;;;;5.70;3.60;;;;;;;11.19;43.04;99245.38;5035220;28;20033;-76
2024/02/16 02:56:31;;;;;;;7.38;3.85;;;;;;;11.13;43.30;99230.13;5018194;28;20488;-72
2024/02/16 02:58:57;;;;;;;7.43;3.80;;;;;;;11.11;43.03;99225.00;5034730;28;20103;-73
2024/02/16 03:01:22;;;;;;;4.55;3.50;;;;;;;11.17;43.08;99229.81;5034562;28;20033;-73
2024/02/16 03:03:48;;;;;;;5.63;3.83;;;;;;;11.11;43.16;99226.81;5018486;28;20033;-73
2024/02/16 03:06:18;;;;;;;6.32;3.80;;;;;;;11.18;43.02;99228.88;5018408;28;20496;-73
2024/02/16 03:08:43;;;;;;;5.32;3.72;;;;;;;11.13;42.97;99233.59;5018303;28;20591;-71
2024/02/16 03:11:09;;;;;;;6.25;3.50;;;;;;;11.17;43.16;99239.44;5035046;28;20037;-73
2024/02/16 03:13:34;;;;;;;7.85;3.95;;;;;;;11.17;42.92;99240.25;5050836;28;20408;-74
2024/02/16 03:16:00;;;;;;;4.85;3.50;;;;;;;11.16;43.17;99232.53;5051411;28;20025;-73
2024/02/16 03:18:29;;;;;;;6.55;3.85;;;;;;;11.16;42.92;99232.53;5018184;28;20481;-73
2024/02/16 03:20:55;;;;;;;5.32;3.72;;;;;;;11.19;42.66;99242.78;5017938;28;20049;-72
2024/02/16 03:23:20;;;;;;;5.53;3.50;;;;;;;11.21;43.04;99252.19;5034295;28;20033;-74
2024/02/16 03:25:48;;;;;;;4.97;3.10;;;;;;;11.17;42.88;99248.09;5051138;28;20472;-73
2024/02/16 03:28:15;;;;;;;6.68;3.67;;;;;;;11.24;43.07;99243.28;5050946;28;20065;-73
2024/02/16 03:30:41;;;;;;;4.65;3.40;;;;;;;11.23;42.87;99255.50;5017615;28;20033;-73
2024/02/16 03:33:09;;;;;;;5.43;3.30;;;;;;;11.18;42.78;99249.78;5034793;28;20349;-72
2024/02/16 03:35:36;;;;;;;4.18;2.90;;;;;;;11.20;43.06;99245.28;5051050;28;20544;-74
2024/02/16 03:38:01;;;;;;;5.90;3.60;;;;;;;11.18;42.78;99244.56;5034530;28;20029;-73
2024/02/16 03:40:30;;;;;;;5.45;3.60;;;;;;;11.21;42.76;99240.88;5034452;28;20036;-73
2024/02/16 03:42:55;;;;;;;7.68;3.50;;;;;;;11.20;42.85;99241.84;5034521;28;20044;-72
2024/02/16 03:45:21;;;;;;;5.43;3.75;;;;;;;11.20;42.77;99250.50;4903944;28;4239737;-73
2024/02/16 03:47:52;;;;;;;5.65;3.17;;;;;;;11.21;42.92;99249.56;5034478;28;20494;-72
2024/02/16 03:50:18;;;;;;;5.93;3.55;;;;;;;11.20;42.90;99249.69;5051196;28;20024;-73
2024/02/16 03:52:43;;;;;;;4.93;3.28;;;;;;;11.18;43.18;99244.56;5034708;28;20099;-73
2024/02/16 03:55:09;;;;;;;4.55;3.50;;;;;;;11.10;42.75;99246.03;5050764;28;20538;-73
2024/02/16 03:57:34;;;;;;;5.78;3.83;;;;;;;11.15;42.78;99254.41;5035242;28;20033;-73
2024/02/16 04:00:00;;;;;;;5.55;3.38;;;;;;;11.12;42.71;99268.50;5052035;28;20032;-73
2024/02/16 04:02:25;;;;;;;5.57;3.50;;;;;;;11.13;42.96;99269.31;5051266;28;20401;-73
2024/02/16 04:04:51;;;;;;;6.03;3.47;;;;;;;11.06;42.50;99257.66;5017720;28;20021;-76
2024/02/16 04:07:16;;;;;;;4.82;3.38;;;;;;;11.13;42.38;99266.72;5034143;28;20095;-73
2024/02/16 04:09:42;;;;;;;6.70;3.28;;;;;;;11.11;42.34;99277.28;5051411;28;20117;-72
2024/02/16 04:12:08;;;;;;;7.80;3.75;;;;;;;11.11;42.26;99281.66;5051250;28;20056;-73
2024/02/16 04:14:33;;;;;;;4.22;2.92;;;;;;;11.07;42.27;99267.13;5034377;28;20053;-73
2024/02/16 04:16:59;;;;;;;4.85;2.95;;;;;;;11.07;42.34;99274.97;5034792;28;20468;-73
2024/02/16 04:19:28;;;;;;;5.28;3.30;;;;;;;11.00;42.42;99282.41;5034646;28;20037;-74
2024/02/16 04:21:53;;;;;;;4.97;2.97;;;;;;;11.07;42.10;99286.28;5033580;28;20086;-72
2024/02/16 04:24:19;;;;;;;4.60;3.08;;;;;;;11.06;42.29;99284.59;5034206;28;20438;-72
2024/02/16 04:26:45;;;;;;;4.78;2.90;;;;;;;11.04;42.31;99287.31;5034230;28;20037;-73
2024/02/16 04:29:11;;;;;;;5.70;3.00;;;;;;;11.03;42.08;99282.19;5018008;28;20094;-74
2024/02/16 04:31:39;;;;;;;4.07;3.03;;;;;;;10.91;41.87;99265.63;5017696;28;20045;-72
2024/02/16 04:34:05;;;;;;;;;;;;;;;11.06;42.04;99281.16;5034128;28;20140;-72
2024/02/16 04:36:30;;;;;;;5.97;2.90;;;;;;;11.04;42.13;99295.16;5050677;28;20808;-71
2024/02/16 04:38:55;;;;;;;4.88;3.03;;;;;;;11.07;42.04;99288.91;5050538;28;20036;-70
2024/02/16 04:41:21;;;;;;;6.20;2.88;;;;;;;11.40;57.06;99290.91;5019414;28;20029;-69
2024/02/16 04:43:47;;;;;;;5.47;2.97;;;;;;;11.50;50.82;99305.94;5049711;28;20049;-72
2024/02/16 04:46:16;;;;;;;7.53;3.20;;;;;;;11.52;49.43;99298.81;5051094;28;20040;-76
2024/02/16 04:48:41;;;;;;;5.88;3.10;;;;;;;11.56;47.86;99298.50;5017516;28;20130;-74
2024/02/16 04:51:07;;;;;;;4.85;2.90;;;;;;;11.64;47.47;99311.03;5034261;28;20112;-78
2024/02/16 04:53:32;;;;;;;9.00;3.20;;;;;;;11.72;50.18;99310.50;5050870;28;20033;-76
2024/02/16 04:55:58;;;;;;;5.78;2.72;;;;;;;11.69;47.07;99308.91;5017327;28;20051;-80
2024/02/16 04:58:23;;;;;;;6.03;2.88;;;;;;;11.69;46.23;99313.31;5034407;28;20067;-76
2024/02/16 05:00:49;;;;;;;4.30;2.90;;;;;;;11.74;45.86;99321.66;5050560;28;20082;-82
2024/02/16 05:03:14;;;;;;;4.40;2.70;;;;;;;11.83;48.07;99325.38;5052089;28;20037;-78
2024/02/16 05:05:41;;;;;;;5.07;2.85;;;;;;;11.84;47.01;99330.50;5034310;28;20086;-77
2024/02/16 05:08:06;;;;;;;6.93;3.03;;;;;;;11.83;46.74;99323.63;5051101;28;20108;-78
2024/02/16 05:10:32;;;;;;;8.23;2.60;;;;;;;11.92;56.24;99327.38;5051804;28;20098;-80
2024/02/16 05:13:00;;;;;;;8.20;3.17;;;;;;;12.07;56.20;99328.06;5051540;28;20040;-76
2024/02/16 05:15:25;;;;;;;9.00;3.08;;;;;;;12.11;51.81;99329.47;5049923;28;20029;-75
2024/02/16 05:17:51;;;;;;;7.72;2.60;;;;;;;12.12;51.38;99333.78;5049910;28;20044;-74
2024/02/16 05:20:16;;;;;;;7.68;3.13;;;;;;;12.22;55.60;99340.00;5033177;28;20092;-76
2024/02/16 05:22:43;;;;;;;7.47;2.80;;;;;;;12.42;56.43;99337.72;5034952;28;20524;-70
2024/02/16 05:25:10;;;;;;;8.68;3.00;;;;;;;12.49;55.01;99344.13;5033518;28;20028;-71
2024/02/16 05:27:37;;;;;;;9.50;3.20;;;;;;;12.43;54.31;99328.88;5017248;28;20412;-70
2024/02/16 05:30:07;;;;;;;10.32;2.55;;;;;;;12.47;54.02;99327.72;5049541;28;20041;-70
2024/02/16 05:32:34;;;;;;;4.47;2.88;;;;;;;12.42;53.15;99329.84;5017185;28;20419;-71
2024/02/16 05:35:03;;;;;;;7.05;2.55;;;;;;;12.44;52.82;99336.63;5033145;28;20228;-72
2024/02/16 05:37:32;;;;;;;5.90;2.50;;;;;;;12.44;52.13;99344.47;5050030;28;20040;-70
2024/02/16 05:40:08;;;;;;;6.05;3.05;;;;;;;12.45;52.13;99342.72;5050743;28;20025;-70
2024/02/16 05:42:34;;;;;;;5.25;2.78;;;;;;;12.42;51.67;99335.09;5050496;28;20036;-71
2024/02/16 05:44:59;;;;;;;7.18;2.55;;;;;;;12.56;60.62;99332.28;5050235;28;20103;-70
2024/02/16 05:47:25;;;;;;;5.45;2.40;;;;;;;12.67;56.83;99350.63;5017293;28;20033;-72
2024/02/16 05:49:50;;;;;;;5.63;3.10;;;;;;;12.67;55.08;99350.63;5050361;28;20037;-73
2024/02/16 05:52:19;;;;;;;10.18;3.22;;;;;;;12.66;54.36;99363.84;5050018;28;20045;-73
2024/02/16 05:54:48;;;;;;;8.07;2.85;;;;;;;12.63;53.49;99351.81;5050433;28;20056;-73
2024/02/16 05:57:14;;;;;;;5.47;3.10;;;;;;;12.63;53.13;99356.22;5033543;28;20122;-74
2024/02/16 05:59:39;;;;;;;6.85;3.00;;;;;;;12.61;52.60;99360.72;5013499;28;20420;-75
2024/02/16 06:02:08;;;;;;;4.05;2.80;;;;;;;12.56;51.98;99363.69;4998271;28;20033;-71
2024/02/16 06:04:34;;;;;;;5.60;3.42;;;;;;;12.60;52.03;99373.00;5014149;28;20544;-71
2024/02/16 06:06:59;;;;;;;5.60;3.20;;;;;;;12.55;51.57;99363.81;5030131;28;20120;-71
2024/02/16 06:09:25;;;;;;;5.88;3.35;;;;;;;12.55;51.28;99361.19;5013993;28;20026;-71
2024/02/16 06:11:51;;;;;;;4.35;3.10;;;;;;;12.55;51.13;99361.19;5014178;28;20052;-69
2024/02/16 06:14:16;;;;;;;5.28;3.17;;;;;;;12.60;51.05;99373.00;5030107;28;20029;-69
2024/02/16 06:16:42;;;;;;;4.72;3.22;;;;;;;12.56;50.59;99368.94;5014371;28;20030;-71
2024/02/16 06:19:08;;;;;;;6.18;2.95;;;;;;;12.61;50.37;99374.66;5030699;28;20037;-70
2024/02/16 06:21:35;;;;;;;7.07;3.50;;;;;;;12.58;50.06;99374.88;4997695;28;20041;-70
2024/02/16 06:24:00;;;;;;;4.57;2.72;;;;;;;12.61;49.96;99373.81;5013993;28;20030;-69
2024/02/16 06:26:26;;;;;;;4.55;3.28;;;;;;;12.62;49.64;99363.25;4997374;28;20040;-69
2024/02/16 06:28:51;;;;;;;6.20;3.20;;;;;;;12.68;49.43;99380.25;4996833;28;20076;-71
2024/02/16 06:31:17;;;;;;;4.15;2.75;;;;;;;12.69;48.97;99378.50;5014344;28;20037;-68
2024/02/16 06:33:42;;;;;;;5.60;3.50;;;;;;;12.70;49.13;99380.16;5013598;28;20038;-69
2024/02/16 06:36:09;;;;;;;4.25;3.10;;;;;;;12.72;48.64;99383.50;5030741;28;20036;-71
2024/02/16 06:38:34;;;;;;;6.60;3.30;;;;;;;12.71;48.43;99387.91;5016972;28;20128;-71
2024/02/16 06:41:00;;;;;;;5.28;3.40;;;;;;;12.71;48.26;99371.34;5016946;28;20052;-71
2024/02/16 06:43:25;;;;;;;6.43;4.00;;;;;;;12.74;48.00;99368.50;5017018;28;20546;-69
2024/02/16 06:45:51;;;;;;;7.00;4.30;;;;;;;12.80;47.67;99368.88;5033805;28;20029;-72
2024/02/16 06:48:16;;;;;;;7.88;4.80;;;;;;;12.82;47.82;99380.09;5034560;28;20493;-70
2024/02/16 06:50:42;;;;;;;9.43;5.60;;;;;;;12.82;47.46;99374.00;5016741;28;20128;-71
2024/02/16 06:53:07;;;;;;;9.55;5.13;;;;;;;12.91;47.20;99386.41;5033393;28;20408;-70
2024/02/16 06:55:33;;;;;;;8.55;5.32;;;;;;;12.93;47.20;99379.25;5016918;28;20041;-70
2024/02/16 06:57:58;;;;;;;8.98;6.40;;;;;;;12.97;46.63;99375.47;5016735;28;20041;-70
2024/02/16 07:00:24;;;;;;;10.50;6.55;;;;;;;13.03;46.43;99390.72;5000777;28;20030;-70
2024/02/16 07:02:49;;;;;;;11.98;7.55;;;;;;;12.98;46.15;99374.53;5017223;28;20051;-70
2024/02/16 07:05:17;;;;;;;12.50;7.00;;;;;;;13.00;45.84;99366.53;5017086;28;20021;-71
2024/02/16 07:07:43;;;;;;;9.57;6.80;;;;;;;13.07;45.72;99390.50;5001031;28;20056;-70
2024/02/16 07:10:13;;;;;;;10.18;6.93;;;;;;;13.06;45.95;99379.16;5033245;28;20480;-72
2024/02/16 07:12:39;;;;;;;9.35;6.65;;;;;;;13.02;45.66;99373.31;5017281;28;20484;-69
2024/02/16 07:15:05;;;;;;;9.98;7.05;;;;;;;13.03;45.44;99379.41;5000322;28;20021;-71
2024/02/16 07:17:30;;;;;;;9.48;7.13;;;;;;;13.05;45.32;99369.63;5000221;28;20025;-70
2024/02/16 07:19:56;;;;;;;11.18;7.10;;;;;;;13.11;44.88;99387.53;5016543;28;20029;-70
2024/02/16 07:22:21;;;;;;;11.75;7.68;;;;;;;13.12;45.00;99388.34;5016237;28;20041;-70
2024/02/16 07:24:47;;;;;;;9.88;7.20;;;;;;;13.16;45.13;99388.00;5032581;28;20025;-70
2024/02/16 07:27:13;;;;;;;9.45;7.00;;;;;;;13.18;44.90;99383.47;5032559;28;20477;-70
2024/02/16 07:29:39;;;;;;;10.70;7.30;;;;;;;13.24;44.56;99376.09;5032691;28;20041;-70
2024/02/16 07:32:04;;;;;;;11.65;7.15;;;;;;;13.24;44.93;99378.72;5033895;28;20052;-71
2024/02/16 07:34:30;;;;;;;12.60;7.18;;;;;;;13.35;44.70;99399.72;5033636;28;20021;-71
2024/02/16 07:36:56;;;;;;;10.38;7.35;;;;;;;13.40;44.80;99402.81;5034036;28;20029;-70
2024/02/16 07:39:23;;;;;;;10.13;6.72;;;;;;;13.45;44.41;99402.47;5016284;28;20029;-69
2024/02/16 07:41:49;;;;;;;10.60;7.32;;;;;;;13.51;44.36;99400.19;5033630;28;20059;-71
2024/02/16 07:44:14;;;;;;;10.18;7.15;;;;;;;13.60;44.14;99408.28;4999394;28;20049;-69
2024/02/16 07:46:41;;;;;;;10.48;6.97;;;;;;;13.65;43.95;99407.00;5016419;28;20032;-70
2024/02/16 07:49:06;;;;;;;11.13;7.43;;;;;;;13.73;43.71;99420.34;5014810;28;20048;-69
2024/02/16 07:51:32;;;;;;;9.85;6.65;;;;;;;13.86;43.62;99424.63;5033656;28;20034;-70
2024/02/16 07:53:57;;;;;;;12.48;6.85;;;;;;;13.98;43.17;99413.16;5032503;28;20040;-69
2024/02/16 07:56:23;;;;;;;10.05;6.75;;;;;;;14.21;42.77;99426.22;5032406;28;20230;-69
2024/02/16 07:58:48;;;;;;;9.20;6.20;;;;;;;14.36;42.42;99421.50;5015504;28;20049;-69
2024/02/16 08:01:16;;;;;;;9.00;6.07;;;;;;;14.56;42.32;99422.53;5015880;28;20087;-70
2024/02/16 08:03:42;;;;;;;9.25;6.40;;;;;;;14.81;41.91;99424.81;5016217;28;20034;-70
2024/02/16 08:06:07;;;;;;;7.53;5.57;;;;;;;15.12;41.79;99434.59;5032429;28;20523;-69
2024/02/16 08:08:33;;;;;;;8.43;5.97;;;;;;;15.29;41.58;99428.75;5015735;28;20030;-69
2024/02/16 08:10:58;;;;;;;7.88;5.85;;;;;;;15.59;41.20;99431.50;5032103;28;20033;-70
2024/02/16 08:13:24;;;;;;;9.80;6.60;;;;;;;16.02;40.48;99433.91;5031918;28;20056;-70
2024/02/16 08:15:51;;;;;;;7.78;5.95;;;;;;;16.23;40.06;99430.34;5032071;28;20069;-70
2024/02/16 08:18:17;;;;;;;8.70;6.20;;;;;;;16.70;39.47;99430.50;5032237;28;20032;-70
2024/02/16 08:20:43;;;;;;;10.20;6.45;;;;;;;16.94;39.44;99426.63;5033296;28;20026;-70
2024/02/16 08:23:08;;;;;;;9.30;6.63;;;;;;;17.11;38.93;99432.97;5032083;28;20108;-69
2024/02/16 08:25:34;;;;;;;9.95;6.07;;;;;;;17.27;38.51;99425.31;5031907;28;20408;-70
2024/02/16 08:28:00;;;;;;;8.15;6.07;;;;;;;17.48;38.35;99424.25;4999097;28;20041;-71
2024/02/16 08:30:25;;;;;;;10.00;6.53;;;;;;;17.66;38.02;99430.44;5015423;28;20033;-69
2024/02/16 08:32:51;;;;;;;7.25;5.38;;;;;;;17.82;37.48;99431.59;5031613;28;20389;-70
2024/02/16 08:35:18;;;;;;;7.10;5.63;;;;;;;18.02;37.16;99424.44;5015394;28;20021;-70
2024/02/16 08:37:44;;;;;;;7.18;5.50;;;;;;;18.11;36.78;99428.03;4999643;28;20029;-70
2024/02/16 08:40:14;;;;;;;8.13;5.82;;;;;;;18.10;36.84;99418.44;5032756;28;20056;-70
2024/02/16 08:42:41;;;;;;;6.85;5.28;;;;;;;18.18;36.70;99432.53;4999717;28;20033;-69
2024/02/16 08:45:07;;;;;;;9.02;5.40;;;;;;;18.10;36.55;99415.78;5015091;28;20537;-70
2024/02/16 08:47:32;;;;;;;7.00;5.00;;;;;;;18.20;36.70;99411.25;4998857;28;20037;-69
2024/02/16 08:49:58;;;;;;;7.40;4.72;;;;;;;18.31;36.56;99424.28;5015065;28;20505;-69
2024/02/16 08:52:23;;;;;;;6.93;4.78;;;;;;;18.38;36.48;99421.88;5031231;28;20087;-70
2024/02/16 08:54:49;;;;;;;6.97;5.10;;;;;;;18.43;36.32;99432.81;5030982;28;20044;-70
2024/02/16 08:57:14;;;;;;;8.23;5.60;;;;;;;18.53;36.20;99438.00;5031022;28;20338;-70
2024/02/16 08:59:40;;;;;;;7.13;5.43;;;;;;;18.50;36.19;99428.59;5030223;28;20056;-71
2024/02/16 09:02:06;;;;;;;7.57;5.78;;;;;;;18.49;36.10;99432.22;5014407;28;20041;-70
2024/02/16 09:04:31;;;;;;;7.32;5.47;;;;;;;18.59;35.87;99438.22;4998124;28;20148;-69
2024/02/16 09:06:57;;;;;;;8.30;5.30;;;;;;;18.72;35.72;99437.88;5014730;28;20563;-70
2024/02/16 09:09:22;;;;;;;6.60;5.18;;;;;;;18.89;35.56;99438.03;5030778;28;20033;-70
2024/02/16 09:11:48;;;;;;;8.48;5.35;;;;;;;19.07;35.54;99436.19;5032183;28;20116;-69
2024/02/16 09:14:13;;;;;;;8.32;5.55;;;;;;;19.23;35.04;99445.19;5014377;28;20515;-69
2024/02/16 09:16:40;;;;;;;7.25;5.00;;;;;;;19.95;34.49;99442.28;5030892;28;20109;-69
2024/02/16 09:19:05;;;;;;;5.65;4.40;;;;;;;20.04;34.28;99444.81;5030817;28;20045;-69
2024/02/16 09:21:31;;;;;;;8.10;5.22;;;;;;;20.83;33.18;99449.78;4997989;28;20464;-71
2024/02/16 09:24:01;;;;;;;6.78;4.38;;;;;;;21.28;32.70;99448.38;5014213;28;20049;-69
2024/02/16 09:26:30;;;;;;;6.60;4.57;;;;;;;21.89;31.75;99447.09;4998870;28;20559;-69
2024/02/16 09:28:59;;;;;;;6.93;4.60;;;;;;;22.75;30.96;99446.06;5014475;28;20132;-73
2024/02/16 09:31:25;;;;;;;5.38;4.03;;;;;;;23.27;29.97;99443.66;5014149;28;20558;-70
2024/02/16 09:33:51;;;;;;;5.80;3.97;;;;;;;24.22;28.80;99436.69;4997640;28;20065;-70
2024/02/16 09:36:17;;;;;;;5.75;3.85;;;;;;;24.97;27.92;99441.72;5014277;28;20025;-69
2024/02/16 09:38:43;;;;;;;5.25;3.65;;;;;;;25.48;27.30;99454.88;5014359;28;20378;-70
2024/02/16 09:41:08;;;;;;;7.10;3.33;;;;;;;25.33;27.49;99448.81;5031727;28;20036;-72
2024/02/16 09:43:34;;;;;;;4.03;3.25;;;;;;;25.36;27.00;99438.53;5030547;28;20033;-70
2024/02/16 09:46:03;;;;;;;4.43;3.10;;;;;;;25.61;27.12;99438.06;5030753;28;20041;-72
2024/02/16 09:48:28;;;;;;;3.75;2.95;;;;;;;25.96;26.89;99435.34;5031826;28;20029;-73
2024/02/16 09:50:55;;;;;;;4.85;3.13;;;;;;;26.24;26.59;99426.41;5031500;28;20021;-72
2024/02/16 09:53:23;;;;;;;4.22;2.72;;;;;;;26.41;26.28;99416.13;5030682;28;20026;-69
2024/02/16 09:55:49;;;;;;;4.82;2.92;;;;;;;26.52;25.89;99423.59;5014503;28;20025;-70
2024/02/16 09:58:18;;;;;;;5.30;2.88;;;;;;;26.62;25.96;99415.16;4997575;28;20472;-69
2024/02/16 10:00:54;;;;;;;4.65;3.13;;;;;;;26.74;25.61;99413.53;5014256;28;20025;-69
2024/02/16 10:03:27;;;;;;;4.55;2.92;;;;;;;26.78;25.03;99412.06;5030457;28;20079;-70
2024/02/16 10:05:53;;;;;;;3.60;2.78;;;;;;;26.89;25.24;99411.44;5014664;28;20025;-70
2024/02/16 10:08:19;;;;;;;4.97;2.75;;;;;;;26.90;24.97;99404.25;5030213;28;20029;-70
2024/02/16 10:10:44;;;;;;;4.40;3.05;;;;;;;27.03;24.86;99412.28;5014459;28;20162;-70
2024/02/16 10:13:11;;;;;;;4.72;2.97;;;;;;;27.00;25.27;99406.50;5017840;28;20400;-70
2024/02/16 10:15:37;;;;;;;4.75;2.70;;;;;;;26.87;25.20;99415.38;5034026;28;20040;-69
2024/02/16 10:18:05;;;;;;;6.07;2.80;;;;;;;27.05;25.01;99414.75;5017785;28;20473;-72
2024/02/16 10:20:35;;;;;;;4.00;2.60;;;;;;;27.03;25.12;99398.06;5018025;28;20171;-71
2024/02/16 10:23:10;;;;;;;3.63;2.45;;;;;;;27.11;25.07;99397.84;5034059;28;20036;-70
2024/02/16 10:25:36;;;;;;;4.45;2.58;;;;;;;27.27;25.23;99397.38;5017642;28;20057;-69
2024/02/16 10:28:10;;;;;;;4.47;2.58;;;;;;;27.45;24.96;99403.97;5017340;28;20037;-70
2024/02/16 10:30:39;;;;;;;4.65;2.40;;;;;;;27.62;24.73;99398.97;5018071;28;20029;-69
2024/02/16 10:33:05;;;;;;;4.55;2.38;;;;;;;27.26;25.13;99393.06;5001280;28;20518;-70
2024/02/16 10:35:31;;;;;;;5.47;2.50;;;;;;;26.87;25.24;99400.13;5000771;28;20025;-70
2024/02/16 10:37:58;;;;;;;3.90;2.28;;;;;;;26.43;25.40;99390.00;5033847;28;20430;-71
2024/02/16 10:40:23;;;;;;;5.18;2.22;;;;;;;26.17;25.73;99395.13;5001413;28;20121;-72
2024/02/16 10:42:52;;;;;;;5.25;2.40;;;;;;;25.95;26.02;99396.22;5017465;28;20643;-71
2024/02/16 10:45:18;;;;;;;3.70;2.53;;;;;;;25.72;26.00;99397.41;5017274;28;20121;-71
2024/02/16 10:47:44;;;;;;;4.60;2.40;;;;;;;25.34;26.49;99389.00;5017314;28;20053;-72
2024/02/16 10:50:10;;;;;;;3.38;2.30;;;;;;;24.93;25.96;99395.91;5033702;28;20067;-72
2024/02/16 10:52:36;;;;;;;4.85;2.30;;;;;;;24.51;26.99;99401.06;5016954;28;20025;-71
2024/02/16 10:55:02;;;;;;;3.72;2.67;;;;;;;24.17;27.34;99397.25;5000598;28;20045;-71
2024/02/16 10:57:27;;;;;;;3.58;2.40;;;;;;;23.88;27.73;99403.50;5016735;28;20026;-69
2024/02/16 10:59:54;;;;;;;5.00;2.90;;;;;;;23.55;28.31;99403.06;5032911;28;20060;-70
2024/02/16 11:02:20;;;;;;;5.00;2.80;;;;;;;23.21;28.31;99396.44;5000840;28;20041;-72
2024/02/16 11:04:46;;;;;;;4.60;2.97;;;;;;;22.80;28.79;99400.28;5000688;28;20018;-70
2024/02/16 11:07:15;;;;;;;5.13;3.17;;;;;;;22.54;29.21;99396.19;5000817;28;20153;-73
2024/02/16 11:09:41;;;;;;;5.57;3.25;;;;;;;22.35;29.55;99396.66;5017161;28;20039;-70
2024/02/16 11:12:08;;;;;;;4.47;3.10;;;;;;;22.28;29.53;99395.69;5000052;28;20049;-71
2024/02/16 11:14:47;;;;;;;4.32;3.28;;;;;;;22.13;30.15;99390.31;5017338;28;20065;-70
2024/02/16 11:17:13;;;;;;;4.80;3.10;;;;;;;22.17;30.13;99384.47;5017253;28;20480;-72
2024/02/16 11:19:43;;;;;;;6.32;3.17;;;;;;;22.36;29.96;99399.16;5016812;28;20033;-72
2024/02/16 11:22:08;;;;;;;5.22;3.33;;;;;;;22.44;29.88;99392.94;4999872;28;20493;-70
2024/02/16 11:24:35;;;;;;;5.53;3.30;;;;;;;22.50;30.18;99384.25;5032870;28;20048;-71
2024/02/16 11:27:04;;;;;;;4.70;2.90;;;;;;;22.43;30.40;99377.97;5033045;28;20040;-69
2024/02/16 11:29:31;;;;;;;4.15;2.92;;;;;;;22.31;30.20;99371.41;5016205;28;20038;-70